Time;durP1;ratioP1;P1;durP2;ratioP2;P2;SDS_P1;SDS_P2;PMS_P1;PMS_P2;Temp;Humidity;BMP_temperature;BMP_pressure;BME280_temperature;BME280_humidity;BME280_pressure;Samples;Min_cycle;Max_cycle;Signal;HPM_P1;HPM_P2
2021/09/10 00:01:18;;;;;;;9.82;6.72;;;20.40;92.40;;;;;;5027035;28;20033;-88
2021/09/10 00:03:43;;;;;;;13.10;5.95;;;20.40;92.40;;;;;;5050752;28;20029;-88
2021/09/10 00:06:09;;;;;;;11.07;5.00;;;20.30;92.40;;;;;;5049700;28;20040;-87
2021/09/10 00:08:35;;;;;;;8.00;5.45;;;20.30;92.30;;;;;;5050279;28;20057;-88
2021/09/10 00:11:00;;;;;;;11.93;6.55;;;20.30;92.60;;;;;;5050401;28;20029;-87
2021/09/10 00:13:26;;;;;;;8.77;6.20;;;20.30;92.30;;;;;;5050607;28;20044;-87
2021/09/10 00:15:52;;;;;;;10.55;5.78;;;20.30;92.30;;;;;;5031140;28;20478;-87
2021/09/10 00:18:17;;;;;;;13.85;6.13;;;20.20;92.30;;;;;;5050562;28;20033;-88
2021/09/10 00:20:43;;;;;;;9.05;5.22;;;20.20;92.30;;;;;;5023322;28;20110;-88
2021/09/10 00:23:09;;;;;;;6.68;4.50;;;20.20;92.30;;;;;;5051084;28;20067;-87
2021/09/10 00:25:34;;;;;;;13.75;5.72;;;20.20;92.30;;;;;;5050994;28;20041;-87
2021/09/10 00:28:00;;;;;;;11.93;5.32;;;20.10;92.30;;;;;;5052178;28;20028;-87
2021/09/10 00:30:25;;;;;;;11.77;5.25;;;20.10;92.30;;;;;;5034878;28;20044;-87
2021/09/10 00:32:51;;;;;;;8.07;6.35;;;20.10;92.60;;;;;;5035312;28;20103;-88
2021/09/10 00:35:17;;;;;;;8.48;6.03;;;20.10;92.30;;;;;;5035066;28;20033;-88
2021/09/10 00:37:42;;;;;;;12.35;6.53;;;20.00;92.30;;;;;;5034871;28;20470;-87
2021/09/10 00:40:08;;;;;;;11.00;6.97;;;20.00;92.30;;;;;;5034992;28;20025;-87
2021/09/10 00:42:34;;;;;;;14.43;6.60;;;20.00;92.30;;;;;;5035354;28;20033;-88
2021/09/10 00:45:00;;;;;;;9.18;5.53;;;20.00;92.30;;;;;;5052922;28;20112;-88
2021/09/10 00:47:25;;;;;;;11.18;5.50;;;19.90;92.30;;;;;;5035032;28;20037;-87
2021/09/10 00:49:52;;;;;;;16.92;8.25;;;19.90;92.30;;;;;;5052807;28;20041;-88
2021/09/10 00:52:18;;;;;;;9.77;7.65;;;19.90;92.40;;;;;;5053031;28;20033;-88
2021/09/10 00:54:44;;;;;;;13.98;6.55;;;19.90;92.50;;;;;;5035101;28;20048;-88
2021/09/10 00:57:10;;;;;;;9.45;7.55;;;19.90;92.50;;;;;;5052791;28;20051;-88
2021/09/10 00:59:35;;;;;;;9.90;6.30;;;19.90;92.50;;;;;;5052269;28;20444;-87
2021/09/10 01:02:02;;;;;;;7.25;6.53;;;19.80;92.50;;;;;;5051755;28;20029;-87
2021/09/10 01:04:29;;;;;;;9.15;6.00;;;19.80;92.50;;;;;;5034946;28;20075;-88
2021/09/10 01:06:55;;;;;;;14.02;7.10;;;19.80;92.50;;;;;;5051755;28;20025;-88
2021/09/10 01:09:22;;;;;;;9.60;6.43;;;19.80;92.50;;;;;;5034192;28;20145;-87
2021/09/10 01:11:50;;;;;;;13.05;7.68;;;19.80;92.50;;;;;;5052675;28;20456;-87
2021/09/10 01:14:17;;;;;;;11.25;7.75;;;19.80;92.50;;;;;;5035072;28;20108;-88
2021/09/10 01:16:44;;;;;;;10.63;7.78;;;19.70;92.50;;;;;;5052501;28;20482;-87
2021/09/10 01:19:29;;;;;;;7.85;7.05;;;19.80;92.50;;;;;;5034604;28;20124;-87
2021/09/10 01:22:01;;;;;;;11.70;8.57;;;19.80;92.50;;;;;;5052406;28;20100;-88
2021/09/10 01:24:29;;;;;;;10.23;7.07;;;19.80;92.50;;;;;;5052098;28;20029;-88
2021/09/10 01:26:55;;;;;;;;;;;19.80;92.50;;;;;;5030989;28;20025;-87
2021/09/10 01:29:21;;;;;;;9.45;7.47;;;19.80;92.40;;;;;;5037834;28;19959;-88
2021/09/10 01:31:47;;;;;;;11.35;8.45;;;19.70;92.50;;;;;;5051189;28;20079;-88
2021/09/10 01:34:12;;;;;;;7.75;6.93;;;19.70;92.60;;;;;;5036201;28;20360;-88
2021/09/10 01:36:38;;;;;;;11.45;7.85;;;19.70;92.50;;;;;;5034132;28;20029;-87
2021/09/10 01:39:04;;;;;;;7.95;6.65;;;19.70;92.60;;;;;;5055355;28;20025;-87
2021/09/10 01:41:29;;;;;;;10.90;8.55;;;19.70;92.60;;;;;;5055099;28;20037;-87
2021/09/10 01:43:55;;;;;;;13.48;8.75;;;19.70;92.60;;;;;;5053977;28;20048;-88
2021/09/10 01:46:20;;;;;;;11.30;8.93;;;19.70;92.60;;;;;;5031601;28;20041;-88
2021/09/10 01:48:48;;;;;;;8.77;7.65;;;19.70;92.60;;;;;;5043650;28;20059;-88
2021/09/10 01:51:13;;;;;;;9.50;6.75;;;19.70;92.60;;;;;;5053625;28;20112;-87
2021/09/10 01:53:40;;;;;;;12.43;7.95;;;19.70;92.60;;;;;;5054375;28;20162;-87
2021/09/10 01:56:06;;;;;;;13.30;7.97;;;19.70;92.60;;;;;;5053699;28;20150;-87
2021/09/10 01:58:31;;;;;;;9.95;7.30;;;19.70;92.60;;;;;;5054929;28;20132;-88
2021/09/10 02:00:57;;;;;;;10.80;8.25;;;19.70;92.60;;;;;;5036767;28;20823;-87
2021/09/10 02:03:22;;;;;;;8.90;6.28;;;19.70;92.60;;;;;;5053539;28;20085;-87
2021/09/10 02:05:49;;;;;;;7.55;6.75;;;19.70;92.60;;;;;;5053743;28;20032;-88
2021/09/10 02:08:15;;;;;;;9.73;7.47;;;19.70;92.50;;;;;;5036783;28;20036;-87
2021/09/10 02:10:40;;;;;;;10.88;6.57;;;19.70;92.60;;;;;;5037019;28;20135;-87
2021/09/10 02:13:06;;;;;;;9.85;7.43;;;19.70;92.60;;;;;;5035144;28;20540;-87
2021/09/10 02:15:31;;;;;;;12.48;8.07;;;19.70;92.60;;;;;;5053691;28;20043;-87
2021/09/10 02:17:57;;;;;;;10.95;8.32;;;19.70;92.60;;;;;;5033581;28;20038;-88
2021/09/10 02:20:23;;;;;;;13.13;8.25;;;19.70;92.60;;;;;;5053250;28;20029;-88
2021/09/10 02:22:48;;;;;;;10.43;7.07;;;19.80;92.70;;;;;;5053442;28;20385;-87
2021/09/10 02:25:14;;;;;;;15.40;7.88;;;19.80;92.70;;;;;;5054475;28;20116;-88
2021/09/10 02:27:39;;;;;;;14.95;8.32;;;19.80;92.70;;;;;;5023805;28;20037;-87
2021/09/10 02:30:06;;;;;;;11.90;9.00;;;19.80;92.80;;;;;;5053919;28;20033;-88
2021/09/10 02:32:31;;;;;;;14.65;8.70;;;19.80;92.90;;;;;;5052911;28;20039;-87
2021/09/10 02:34:57;;;;;;;11.00;8.80;;;19.80;92.90;;;;;;5031294;28;20021;-88
2021/09/10 02:37:23;;;;;;;14.98;7.90;;;19.90;92.90;;;;;;5033095;28;20041;-88
2021/09/10 02:39:48;;;;;;;10.40;7.90;;;19.90;92.90;;;;;;5051517;28;20025;-87
2021/09/10 02:42:14;;;;;;;13.80;9.65;;;19.90;92.90;;;;;;5036074;28;20036;-88
2021/09/10 02:44:40;;;;;;;11.63;7.32;;;19.90;93.00;;;;;;5035937;28;20168;-87
2021/09/10 02:47:06;;;;;;;12.70;9.00;;;19.90;93.00;;;;;;5026478;28;20487;-88
2021/09/10 02:49:31;;;;;;;9.18;7.85;;;19.90;93.00;;;;;;5035092;28;20115;-87
2021/09/10 02:51:57;;;;;;;13.07;9.63;;;19.90;93.00;;;;;;5036356;28;20115;-87
2021/09/10 02:54:23;;;;;;;12.27;8.95;;;19.90;93.00;;;;;;5053764;28;20135;-87
2021/09/10 02:56:48;;;;;;;13.40;9.18;;;19.90;93.10;;;;;;5052939;28;20057;-87
2021/09/10 02:59:14;;;;;;;14.10;8.77;;;19.90;93.10;;;;;;5053776;28;20829;-88
2021/09/10 03:01:44;;;;;;;13.25;8.32;;;19.90;93.10;;;;;;5054307;28;20041;-88
2021/09/10 03:04:10;;;;;;;13.15;8.10;;;19.90;93.20;;;;;;5053656;28;20025;-88
2021/09/10 03:06:36;;;;;;;12.40;8.68;;;19.90;93.20;;;;;;5052730;28;20125;-88
2021/09/10 03:09:02;;;;;;;12.23;8.68;;;19.90;93.20;;;;;;5052878;28;20559;-87
2021/09/10 03:11:28;;;;;;;11.50;8.50;;;19.90;93.20;;;;;;5030901;28;20099;-88
2021/09/10 03:13:54;;;;;;;19.65;10.63;;;19.90;93.30;;;;;;5052449;28;20060;-88
2021/09/10 03:16:20;;;;;;;14.27;8.27;;;19.90;93.60;;;;;;5053300;28;20041;-88
2021/09/10 03:18:46;;;;;;;12.60;7.10;;;19.90;93.40;;;;;;5052142;28;20024;-88
2021/09/10 03:21:11;;;;;;;10.93;7.70;;;19.90;93.40;;;;;;5053715;28;20433;-88
2021/09/10 03:23:37;;;;;;;11.85;7.75;;;19.90;93.40;;;;;;5053210;28;20035;-88
2021/09/10 03:26:02;;;;;;;12.77;7.30;;;19.90;93.40;;;;;;5035592;28;20385;-88
2021/09/10 03:28:28;;;;;;;10.82;8.85;;;19.80;93.40;;;;;;5052817;28;20052;-87
2021/09/10 03:30:54;;;;;;;9.93;7.97;;;19.80;93.40;;;;;;5031274;28;20457;-87
2021/09/10 03:33:20;;;;;;;12.32;9.65;;;19.80;93.50;;;;;;5047957;28;20406;-88
2021/09/10 03:35:45;;;;;;;14.75;8.13;;;19.70;93.40;;;;;;5049590;28;20120;-88
2021/09/10 03:38:11;;;;;;;9.73;6.88;;;19.70;93.40;;;;;;5049960;28;20107;-88
2021/09/10 03:40:37;;;;;;;13.45;8.02;;;19.70;93.40;;;;;;5048699;28;20042;-88
2021/09/10 03:43:07;;;;;;;8.23;7.40;;;19.70;93.40;;;;;;5024478;28;20032;-88
2021/09/10 03:45:33;;;;;;;8.00;6.75;;;19.70;93.40;;;;;;5034046;28;20115;-87
2021/09/10 03:47:59;;;;;;;9.27;7.45;;;19.70;93.40;;;;;;5052727;28;20029;-88
2021/09/10 03:50:24;;;;;;;14.30;7.10;;;19.60;93.40;;;;;;5026285;28;20032;-88
2021/09/10 03:52:50;;;;;;;13.95;7.45;;;19.60;93.40;;;;;;5052108;28;20170;-88
2021/09/10 03:55:17;;;;;;;7.40;5.90;;;19.60;93.40;;;;;;5049704;28;20509;-88
2021/09/10 03:57:42;;;;;;;12.35;8.05;;;19.50;93.40;;;;;;5051891;28;20024;-88
2021/09/10 04:00:09;;;;;;;13.90;8.18;;;19.50;93.40;;;;;;5033881;28;20075;-88
2021/09/10 04:02:35;;;;;;;11.60;7.43;;;19.50;93.40;;;;;;5046944;28;20033;-86
2021/09/10 04:05:00;;;;;;;10.13;7.80;;;19.50;93.50;;;;;;5047813;28;20374;-88
2021/09/10 04:07:26;;;;;;;14.40;8.25;;;19.50;93.50;;;;;;5048252;28;20032;-88
2021/09/10 04:09:51;;;;;;;10.75;8.65;;;19.40;93.50;;;;;;5048384;28;20033;-88
2021/09/10 04:12:17;;;;;;;9.13;8.10;;;19.40;93.40;;;;;;5029812;28;20033;-87
2021/09/10 04:14:43;;;;;;;10.38;6.82;;;19.40;93.40;;;;;;5021319;28;20026;-88
2021/09/10 04:17:08;;;;;;;10.52;8.20;;;19.40;93.40;;;;;;5047008;28;20033;-88
2021/09/10 04:19:34;;;;;;;19.38;10.60;;;19.40;93.70;;;;;;5034378;28;20029;-88
2021/09/10 04:21:59;;;;;;;11.57;8.35;;;19.30;93.40;;;;;;5050802;28;20527;-87
2021/09/10 04:24:25;;;;;;;11.40;8.75;;;19.30;93.40;;;;;;5051850;28;20099;-88
2021/09/10 04:26:52;;;;;;;15.85;9.38;;;19.30;93.40;;;;;;5032066;28;20026;-88
2021/09/10 04:29:18;;;;;;;10.30;7.95;;;19.30;93.40;;;;;;5050744;28;20147;-87
2021/09/10 04:31:44;;;;;;;15.43;7.00;;;19.30;93.40;;;;;;5034311;28;20037;-88
2021/09/10 04:34:10;;;;;;;8.35;6.30;;;19.20;93.30;;;;;;5034285;28;20129;-87
2021/09/10 04:36:35;;;;;;;9.23;6.65;;;19.20;93.30;;;;;;5051969;28;20502;-88
2021/09/10 04:39:02;;;;;;;16.25;6.82;;;19.20;93.30;;;;;;5034205;28;20470;-87
2021/09/10 04:41:27;;;;;;;9.60;7.72;;;19.10;93.30;;;;;;5033950;28;20512;-88
2021/09/10 04:43:53;;;;;;;9.57;6.90;;;19.10;93.30;;;;;;5034231;28;20041;-87
2021/09/10 04:46:19;;;;;;;9.93;6.75;;;19.10;93.30;;;;;;5034069;28;20036;-87
2021/09/10 04:48:44;;;;;;;14.07;7.97;;;19.10;93.60;;;;;;5051688;28;20056;-88
2021/09/10 04:51:10;;;;;;;11.90;9.40;;;19.10;93.30;;;;;;5033701;28;20029;-87
2021/09/10 04:53:36;;;;;;;10.18;8.15;;;19.10;93.30;;;;;;5050772;28;20417;-88
2021/09/10 04:56:02;;;;;;;12.50;7.72;;;19.10;93.30;;;;;;5033809;28;20437;-88
2021/09/10 04:58:29;;;;;;;9.70;8.02;;;19.10;93.30;;;;;;5031318;28;20097;-87
2021/09/10 05:00:55;;;;;;;12.23;8.10;;;19.00;93.30;;;;;;5050529;28;20049;-88
2021/09/10 05:03:20;;;;;;;10.43;8.43;;;19.00;93.30;;;;;;5033476;28;20060;-87
2021/09/10 05:05:46;;;;;;;9.68;8.65;;;19.00;93.30;;;;;;5034213;28;20394;-87
2021/09/10 05:08:12;;;;;;;13.07;8.50;;;19.00;93.30;;;;;;5053441;28;20128;-87
2021/09/10 05:10:37;;;;;;;13.20;8.93;;;19.00;93.30;;;;;;5056803;28;20037;-87
2021/09/10 05:13:03;;;;;;;13.10;9.10;;;19.00;93.30;;;;;;5039075;28;20040;-88
2021/09/10 05:15:28;;;;;;;10.23;8.90;;;19.00;93.30;;;;;;5055601;28;20029;-86
2021/09/10 05:17:54;;;;;;;12.07;8.23;;;19.00;93.30;;;;;;5056915;28;20029;-88
2021/09/10 05:20:20;;;;;;;14.35;9.82;;;19.00;93.30;;;;;;5064144;28;20039;-87
2021/09/10 05:22:45;;;;;;;8.80;7.90;;;19.00;93.30;;;;;;5061133;28;20025;-88
2021/09/10 05:25:11;;;;;;;9.98;6.97;;;19.10;93.40;;;;;;5038883;28;20453;-89
2021/09/10 05:27:37;;;;;;;12.23;9.18;;;19.10;93.40;;;;;;5039662;28;20036;-89
2021/09/10 05:30:03;;;;;;;11.93;7.75;;;19.10;93.40;;;;;;5056932;28;20029;-88
2021/09/10 05:32:28;;;;;;;14.07;8.18;;;19.20;93.40;;;;;;5056875;28;20033;-89
2021/09/10 05:34:54;;;;;;;10.95;7.40;;;19.20;93.40;;;;;;5038607;28;20083;-89
2021/09/10 05:37:20;;;;;;;21.58;9.88;;;19.20;93.40;;;;;;5038829;28;20102;-88
2021/09/10 05:39:45;;;;;;;14.27;8.05;;;19.30;93.50;;;;;;5056436;28;20040;-90
2021/09/10 05:42:11;;;;;;;12.35;8.20;;;19.30;93.50;;;;;;5057331;28;20094;-89
2021/09/10 05:44:37;;;;;;;8.32;7.32;;;19.30;93.50;;;;;;5038998;28;20052;-89
2021/09/10 05:47:03;;;;;;;8.68;6.00;;;19.40;93.50;;;;;;5056648;28;20063;-90
2021/09/10 05:49:29;;;;;;;9.10;7.72;;;19.40;93.50;;;;;;5022489;28;21751;-89
2021/09/10 05:51:54;;;;;;;8.40;6.07;;;19.50;93.40;;;;;;5034295;28;20048;-90
2021/09/10 05:54:20;;;;;;;9.07;7.63;;;19.50;93.40;;;;;;5056231;28;20032;-90
2021/09/10 05:56:46;;;;;;;12.32;6.60;;;19.50;93.40;;;;;;5038736;28;20025;-90
2021/09/10 05:59:12;;;;;;;7.18;6.50;;;19.60;93.50;;;;;;5038877;28;20405;-90
2021/09/10 06:01:37;;;;;;;10.32;6.68;;;19.60;93.40;;;;;;5056658;28;20061;-90
2021/09/10 06:04:03;;;;;;;13.18;8.20;;;19.60;93.50;;;;;;5038798;28;20025;-90
2021/09/10 06:06:29;;;;;;;11.68;8.10;;;19.60;93.50;;;;;;5056445;28;20027;-91
2021/09/10 06:08:55;;;;;;;10.23;8.27;;;19.70;93.60;;;;;;5055339;28;20025;-90
2021/09/10 06:11:21;;;;;;;9.40;6.93;;;19.70;93.60;;;;;;5056329;28;20375;-90
2021/09/10 06:13:47;;;;;;;8.82;7.55;;;19.70;93.60;;;;;;5055286;28;20470;-88
2021/09/10 06:16:12;;;;;;;7.75;6.65;;;19.80;93.60;;;;;;5055038;28;20121;-89
2021/09/10 06:18:38;;;;;;;11.32;8.57;;;19.80;93.60;;;;;;5054257;28;20492;-89
2021/09/10 06:21:04;;;;;;;12.80;9.02;;;19.90;93.70;;;;;;5055960;28;20060;-88
2021/09/10 06:23:31;;;;;;;9.50;8.43;;;19.90;93.70;;;;;;5055599;28;20029;-89
2021/09/10 06:25:57;;;;;;;9.27;7.47;;;19.90;93.70;;;;;;5037649;28;20110;-89
2021/09/10 06:28:22;;;;;;;8.50;7.70;;;20.00;93.70;;;;;;5055621;28;20478;-88
2021/09/10 06:30:48;;;;;;;8.05;7.30;;;20.00;93.60;;;;;;5036837;28;20033;-89
2021/09/10 06:33:14;;;;;;;7.70;6.90;;;20.00;93.60;;;;;;5047088;28;20489;-89
2021/09/10 06:35:40;;;;;;;10.90;7.75;;;20.00;93.50;;;;;;5053706;28;20642;-88
2021/09/10 06:38:06;;;;;;;8.48;7.53;;;20.10;93.50;;;;;;5036258;28;20017;-89
2021/09/10 06:40:31;;;;;;;8.40;7.25;;;20.10;93.50;;;;;;5052247;28;20033;-89
2021/09/10 06:42:59;;;;;;;13.40;8.15;;;20.10;93.50;;;;;;5054438;28;20029;-89
2021/09/10 06:45:25;;;;;;;10.97;7.40;;;20.10;93.50;;;;;;5053640;28;20029;-88
2021/09/10 06:47:51;;;;;;;9.30;7.05;;;20.20;93.40;;;;;;5053692;28;20036;-88
2021/09/10 06:50:17;;;;;;;8.18;6.90;;;20.20;93.40;;;;;;5053965;28;20060;-88
2021/09/10 06:52:43;;;;;;;8.55;7.60;;;20.20;93.40;;;;;;5052204;28;20029;-89
2021/09/10 06:55:10;;;;;;;12.52;8.35;;;20.30;93.40;;;;;;5053187;28;20550;-89
2021/09/10 06:57:36;;;;;;;11.63;7.93;;;20.30;93.40;;;;;;5028064;28;20025;-88
2021/09/10 07:00:04;;;;;;;11.07;8.80;;;20.30;93.40;;;;;;5017314;28;20053;-89
2021/09/10 07:02:30;;;;;;;13.43;8.15;;;20.30;93.40;;;;;;5025715;28;20159;-88
2021/09/10 07:04:55;;;;;;;7.72;6.78;;;20.40;93.30;;;;;;5037480;28;20063;-89
2021/09/10 07:07:21;;;;;;;12.30;7.82;;;20.40;93.30;;;;;;5053928;28;20509;-89
2021/09/10 07:09:48;;;;;;;10.07;7.85;;;20.40;93.20;;;;;;5037115;28;20448;-88
2021/09/10 07:12:14;;;;;;;10.00;7.45;;;20.50;93.20;;;;;;5054104;28;20027;-89
2021/09/10 07:14:39;;;;;;;11.98;8.40;;;20.50;93.10;;;;;;5037306;28;20389;-89
2021/09/10 07:17:05;;;;;;;10.07;7.97;;;20.50;93.10;;;;;;5055208;28;20021;-89
2021/09/10 07:19:31;;;;;;;8.85;7.55;;;20.60;93.10;;;;;;5037275;28;20028;-89
2021/09/10 07:21:57;;;;;;;10.00;7.60;;;20.60;92.90;;;;;;5055134;28;20025;-88
2021/09/10 07:24:23;;;;;;;9.10;7.50;;;20.60;92.80;;;;;;5054457;28;20024;-84
2021/09/10 07:26:52;;;;;;;9.98;8.00;;;20.70;92.80;;;;;;5036702;28;20033;-89
2021/09/10 07:29:23;;;;;;;10.32;7.30;;;20.70;92.80;;;;;;5036775;28;20059;-88
2021/09/10 07:31:49;;;;;;;11.20;7.28;;;20.70;92.80;;;;;;5052689;28;20402;-90
2021/09/10 07:34:15;;;;;;;7.78;6.93;;;20.80;92.80;;;;;;5054026;28;20025;-90
2021/09/10 07:36:41;;;;;;;7.80;6.50;;;20.80;92.70;;;;;;5037084;28;20074;-88
2021/09/10 07:39:07;;;;;;;13.25;7.43;;;20.90;92.60;;;;;;5036947;28;20108;-88
2021/09/10 07:41:33;;;;;;;10.40;7.25;;;21.00;92.40;;;;;;5057040;28;20029;-88
2021/09/10 07:43:58;;;;;;;7.57;5.90;;;21.10;92.30;;;;;;5066394;28;20033;-89
2021/09/10 07:46:24;;;;;;;7.90;6.97;;;21.20;92.20;;;;;;5053958;28;20033;-89
2021/09/10 07:48:50;;;;;;;9.15;7.00;;;21.20;92.00;;;;;;5033559;28;20044;-90
2021/09/10 07:51:16;;;;;;;10.32;6.90;;;21.30;92.00;;;;;;5035100;28;20033;-91
2021/09/10 07:53:41;;;;;;;8.05;6.80;;;21.30;92.00;;;;;;5033692;28;20029;-90
2021/09/10 07:56:07;;;;;;;10.13;7.10;;;21.40;91.90;;;;;;5033673;28;20547;-91
2021/09/10 07:58:33;;;;;;;10.77;6.43;;;21.40;91.90;;;;;;5033865;28;20489;-91
2021/09/10 08:00:59;;;;;;;10.90;8.02;;;21.40;92.00;;;;;;5033603;28;20053;-90
2021/09/10 08:03:27;;;;;;;9.35;7.03;;;21.40;92.10;;;;;;5033779;28;20072;-90
2021/09/10 08:05:54;;;;;;;12.77;7.20;;;21.50;92.20;;;;;;5036880;28;20537;-88
2021/09/10 08:08:20;;;;;;;9.45;7.50;;;21.50;92.10;;;;;;5057213;28;20028;-88
2021/09/10 08:10:45;;;;;;;12.75;8.25;;;21.50;92.10;;;;;;5056085;28;20029;-88
2021/09/10 08:13:12;;;;;;;8.90;6.53;;;21.60;92.20;;;;;;5056406;28;20025;-91
2021/09/10 08:15:37;;;;;;;7.93;5.80;;;21.60;92.30;;;;;;5040128;28;20083;-88
2021/09/10 08:18:03;;;;;;;8.20;6.63;;;21.70;91.90;;;;;;5055999;28;20117;-89
2021/09/10 08:20:29;;;;;;;8.13;5.85;;;21.80;91.70;;;;;;5038979;28;20531;-90
2021/09/10 08:22:54;;;;;;;9.70;5.88;;;21.80;91.80;;;;;;5036311;28;20112;-89
2021/09/10 08:25:20;;;;;;;9.20;5.60;;;21.90;91.80;;;;;;5019411;28;20036;-88
2021/09/10 08:27:46;;;;;;;8.57;5.70;;;21.90;91.70;;;;;;5035563;28;20071;-85
2021/09/10 08:30:12;;;;;;;10.07;5.45;;;21.90;91.50;;;;;;5053857;28;20052;-84
2021/09/10 08:32:37;;;;;;;8.98;5.07;;;21.90;91.30;;;;;;5053392;28;20021;-82
2021/09/10 08:35:04;;;;;;;12.32;6.88;;;21.80;91.10;;;;;;5019175;28;20036;-84
2021/09/10 08:37:29;;;;;;;12.25;5.43;;;21.80;91.30;;;;;;5053128;28;20029;-84
2021/09/10 08:39:56;;;;;;;8.90;5.47;;;21.80;91.40;;;;;;5052152;28;20493;-85
2021/09/10 08:42:23;;;;;;;10.00;5.35;;;21.80;91.50;;;;;;5053065;28;20027;-85
2021/09/10 08:44:48;;;;;;;11.57;5.35;;;21.90;91.50;;;;;;5035112;28;20108;-85
2021/09/10 08:47:14;;;;;;;7.93;4.88;;;21.90;91.30;;;;;;5035081;28;20136;-84
2021/09/10 08:49:41;;;;;;;6.93;5.30;;;22.00;91.30;;;;;;5052817;28;20017;-83
2021/09/10 08:52:08;;;;;;;8.43;5.25;;;22.00;91.10;;;;;;5052399;28;20100;-83
2021/09/10 08:54:34;;;;;;;8.43;5.18;;;22.00;91.10;;;;;;5051724;28;20035;-82
2021/09/10 08:57:00;;;;;;;8.27;5.35;;;22.10;91.20;;;;;;5029077;28;20025;-82
2021/09/10 08:59:26;;;;;;;8.60;5.40;;;22.10;91.00;;;;;;5051048;28;20048;-83
2021/09/10 09:01:54;;;;;;;8.27;5.18;;;22.20;90.80;;;;;;5034169;28;20098;-81
2021/09/10 09:04:21;;;;;;;6.40;4.97;;;22.20;90.70;;;;;;5050631;28;20432;-81
2021/09/10 09:06:55;;;;;;;8.68;5.30;;;22.30;90.70;;;;;;5034047;28;20029;-82
2021/09/10 09:09:40;;;;;;;9.50;5.15;;;22.40;90.50;;;;;;5051621;28;20049;-85
2021/09/10 09:12:31;;;;;;;8.77;4.90;;;22.60;90.40;;;;;;5033813;28;20501;-84
2021/09/10 09:14:59;;;;;;;9.85;5.28;;;22.70;90.00;;;;;;5052878;28;20021;-83
2021/09/10 09:17:27;;;;;;;6.05;4.53;;;22.80;89.60;;;;;;5052888;28;20021;-85
2021/09/10 09:20:12;;;;;;;9.20;4.82;;;22.80;89.50;;;;;;5052764;28;20021;-85
2021/09/10 09:23:01;;;;;;;7.70;4.47;;;22.90;89.40;;;;;;5035097;28;20083;-85
2021/09/10 09:25:41;;;;;;;7.80;4.40;;;22.90;88.60;;;;;;5052897;28;20103;-85
2021/09/10 09:28:20;;;;;;;8.25;4.53;;;22.80;88.70;;;;;;5030715;28;20163;-85
2021/09/10 09:30:48;;;;;;;8.45;4.75;;;22.80;88.40;;;;;;5032757;28;20032;-85
2021/09/10 09:33:14;;;;;;;9.02;4.72;;;22.70;88.80;;;;;;5048512;28;20025;-85
2021/09/10 09:35:41;;;;;;;7.93;4.75;;;22.60;89.10;;;;;;5034634;28;20028;-85
2021/09/10 09:38:16;;;;;;;6.72;4.25;;;22.50;89.20;;;;;;5034775;28;20538;-85
2021/09/10 09:40:43;;;;;;;5.93;4.30;;;22.50;89.50;;;;;;5052450;28;20371;-85
2021/09/10 09:43:24;;;;;;;8.80;4.65;;;22.40;89.40;;;;;;5052345;28;20500;-85
2021/09/10 09:45:52;;;;;;;8.00;4.63;;;22.40;89.20;;;;;;5030944;28;20509;-85
2021/09/10 09:48:20;;;;;;;7.82;4.32;;;22.30;89.10;;;;;;5032123;28;20032;-85
2021/09/10 09:50:48;;;;;;;9.60;4.75;;;22.30;89.60;;;;;;5014220;28;20045;-84
2021/09/10 09:53:15;;;;;;;5.45;3.85;;;22.30;89.90;;;;;;5014644;28;20052;-85
2021/09/10 09:55:43;;;;;;;6.53;4.90;;;22.20;89.80;;;;;;5034573;28;20056;-82
2021/09/10 09:58:10;;;;;;;6.33;4.13;;;22.20;90.20;;;;;;5034661;28;20041;-84
2021/09/10 10:00:38;;;;;;;8.82;3.78;;;22.20;90.20;;;;;;5017582;28;20342;-85
2021/09/10 10:03:04;;;;;;;4.47;3.50;;;22.20;90.10;;;;;;5054581;28;20035;-85
2021/09/10 10:05:32;;;;;;;6.13;3.40;;;22.30;90.00;;;;;;5020927;28;20040;-86
2021/09/10 10:08:06;;;;;;;5.75;3.60;;;22.40;90.20;;;;;;5017844;28;20083;-87
2021/09/10 10:10:42;;;;;;;4.22;3.00;;;22.40;90.00;;;;;;5033716;28;20390;-87
2021/09/10 10:13:11;;;;;;;5.43;2.95;;;22.50;89.40;;;;;;5053957;28;20025;-86
2021/09/10 10:15:48;;;;;;;5.35;2.67;;;22.60;88.50;;;;;;5055724;28;20029;-89
2021/09/10 10:18:39;;;;;;;5.35;2.90;;;22.60;88.80;;;;;;5038198;28;20032;-89
2021/09/10 10:21:07;;;;;;;9.43;3.00;;;22.70;88.10;;;;;;5055690;28;20031;-89
2021/09/10 10:23:44;;;;;;;6.78;3.05;;;22.70;87.90;;;;;;5038270;28;20117;-91
2021/09/10 10:26:18;;;;;;;6.93;3.53;;;22.70;87.60;;;;;;5037331;28;20021;-84
2021/09/10 10:28:53;;;;;;;6.18;2.50;;;22.70;87.20;;;;;;5036728;28;20029;-85
2021/09/10 10:31:57;;;;;;;4.13;2.47;;;22.80;87.00;;;;;;5038072;28;20052;-91
2021/09/10 10:34:24;;;;;;;6.05;2.47;;;22.80;87.00;;;;;;5038106;28;20033;-91
2021/09/10 10:36:50;;;;;;;4.68;2.78;;;22.80;87.00;;;;;;5038433;28;20028;-91
2021/09/10 10:39:27;;;;;;;5.65;2.92;;;22.80;86.90;;;;;;5038160;28;20033;-91
2021/09/10 10:41:56;;;;;;;7.18;3.20;;;22.90;86.80;;;;;;5038357;28;20053;-91
2021/09/10 10:44:34;;;;;;;4.38;2.63;;;22.90;86.80;;;;;;5038370;28;20017;-91
2021/09/10 10:47:07;;;;;;;5.85;3.05;;;22.90;87.10;;;;;;5055870;28;20500;-90
2021/09/10 10:49:48;;;;;;;4.57;2.83;;;22.80;87.30;;;;;;5038456;28;20029;-91
2021/09/10 10:52:38;;;;;;;7.75;2.95;;;22.80;87.10;;;;;;5037372;28;20037;-84
2021/09/10 10:55:34;;;;;;;9.50;3.30;;;22.80;87.60;;;;;;5036979;28;20025;-84
2021/09/10 10:58:23;;;;;;;6.55;3.60;;;22.70;88.30;;;;;;5037016;28;20777;-85
2021/09/10 11:00:58;;;;;;;5.93;3.60;;;22.60;88.50;;;;;;5036871;28;20049;-86
2021/09/10 11:03:23;;;;;;;7.55;3.47;;;22.60;89.00;;;;;;5054873;28;20036;-89
2021/09/10 11:05:51;;;;;;;7.78;4.20;;;22.60;89.50;;;;;;5036975;28;20029;-87
2021/09/10 11:08:38;;;;;;;7.40;3.47;;;22.60;90.20;;;;;;5054751;28;20044;-87
2021/09/10 11:11:04;;;;;;;6.30;3.35;;;22.60;90.10;;;;;;5053466;28;20032;-87
2021/09/10 11:13:30;;;;;;;7.55;4.32;;;22.60;90.10;;;;;;5036817;28;20095;-88
2021/09/10 11:15:56;;;;;;;5.80;3.58;;;22.60;90.30;;;;;;5036848;28;20393;-88
2021/09/10 11:18:24;;;;;;;5.90;3.60;;;22.60;90.30;;;;;;5036791;28;20024;-86
2021/09/10 11:20:53;;;;;;;;;;;22.70;90.10;;;;;;5037143;28;20029;-87
2021/09/10 11:23:24;;;;;;;;;;;22.80;90.10;;;;;;5020651;28;20003;-85
2021/09/10 11:25:55;;;;;;;7.40;3.67;;;22.90;90.10;;;;;;5036534;28;19904;-84
2021/09/10 11:28:23;;;;;;;6.65;3.50;;;23.20;90.20;;;;;;5053339;28;20025;-85
2021/09/10 11:30:51;;;;;;;5.95;4.10;;;23.50;89.20;;;;;;5052679;28;20068;-85
2021/09/10 11:33:18;;;;;;;4.10;3.63;;;23.60;87.40;;;;;;5053745;28;20391;-83
2021/09/10 11:35:46;;;;;;;7.15;3.50;;;23.60;86.40;;;;;;5052401;28;20032;-83
2021/09/10 11:38:15;;;;;;;7.22;3.58;;;23.60;86.90;;;;;;5052176;28;20090;-89
2021/09/10 11:40:45;;;;;;;7.32;3.75;;;23.70;87.70;;;;;;5053586;28;20028;-87
2021/09/10 11:43:18;;;;;;;3.90;3.00;;;23.70;87.00;;;;;;5059822;28;20082;-87
2021/09/10 11:45:45;;;;;;;7.82;4.10;;;23.80;86.80;;;;;;5074205;28;20031;-88
2021/09/10 11:48:13;;;;;;;5.80;3.58;;;23.90;86.80;;;;;;5060911;28;20029;-88
2021/09/10 11:50:59;;;;;;;7.13;3.80;;;24.10;86.40;;;;;;5036281;28;20448;-88
2021/09/10 11:53:24;;;;;;;6.63;3.80;;;24.20;84.10;;;;;;5054199;28;20021;-88
2021/09/10 11:56:12;;;;;;;5.15;3.90;;;24.20;84.60;;;;;;5036326;28;20436;-87
2021/09/10 11:58:43;;;;;;;5.15;3.55;;;24.20;85.10;;;;;;5019829;28;20481;-88
2021/09/10 12:01:11;;;;;;;5.38;3.50;;;24.10;84.30;;;;;;5052532;28;20481;-88
2021/09/10 12:03:45;;;;;;;5.72;3.50;;;24.10;83.90;;;;;;5036225;28;20127;-88
2021/09/10 12:06:11;;;;;;;4.95;3.58;;;24.00;84.80;;;;;;5036138;28;20060;-88
2021/09/10 12:08:36;;;;;;;5.68;4.32;;;23.90;84.40;;;;;;5052645;28;20079;-87
2021/09/10 12:11:20;;;;;;;5.72;4.00;;;23.80;84.10;;;;;;5035875;28;20032;-87
2021/09/10 12:13:46;;;;;;;5.30;3.72;;;23.80;84.90;;;;;;5036583;28;20025;-88
2021/09/10 12:16:15;;;;;;;9.73;4.43;;;23.80;86.00;;;;;;5035403;28;20124;-87
2021/09/10 12:19:05;;;;;;;7.80;4.25;;;23.80;85.60;;;;;;5052845;28;20037;-88
2021/09/10 12:21:33;;;;;;;6.22;4.25;;;23.80;85.70;;;;;;5034856;28;20119;-87
2021/09/10 12:24:12;;;;;;;7.35;3.75;;;23.80;84.60;;;;;;5034733;28;20501;-88
2021/09/10 12:26:50;;;;;;;7.32;4.00;;;23.70;85.30;;;;;;5052422;28;20497;-88
2021/09/10 12:29:28;;;;;;;9.57;3.92;;;23.60;85.40;;;;;;5035920;28;20031;-88
2021/09/10 12:31:55;;;;;;;5.15;4.18;;;23.60;85.60;;;;;;5035247;28;20398;-88
2021/09/10 12:34:21;;;;;;;7.65;4.75;;;23.60;85.70;;;;;;5035887;28;20026;-88
2021/09/10 12:36:48;;;;;;;5.72;4.38;;;23.50;86.00;;;;;;5053532;28;20036;-87
2021/09/10 12:39:15;;;;;;;5.38;4.18;;;23.50;86.50;;;;;;5053515;28;20029;-88
2021/09/10 12:41:42;;;;;;;5.60;3.95;;;23.40;87.00;;;;;;5019023;28;20053;-88
2021/09/10 12:44:09;;;;;;;4.93;4.25;;;23.40;87.60;;;;;;5052331;28;20086;-88
2021/09/10 12:46:36;;;;;;;6.40;4.00;;;23.30;87.50;;;;;;5035657;28;20102;-88